createdAt,value
2023-02-19T00:00:21.910Z,9.48
2023-02-19T00:01:22.260Z,9.48
2023-02-19T00:02:21.430Z,9.48
2023-02-19T00:03:21.791Z,9.49
2023-02-19T00:04:22.084Z,9.50
2023-02-19T00:05:22.297Z,9.49
2023-02-19T00:06:21.581Z,9.52
2023-02-19T00:07:22.126Z,9.50
2023-02-19T00:08:22.154Z,9.52
2023-02-19T00:09:22.430Z,9.53
2023-02-19T00:10:21.680Z,9.55
2023-02-19T00:11:21.985Z,9.53
2023-02-19T00:12:22.331Z,9.56
2023-02-19T00:13:21.500Z,9.58
2023-02-19T00:14:21.786Z,9.59
2023-02-19T00:15:22.103Z,9.56
2023-02-19T00:16:21.309Z,9.58
2023-02-19T00:17:21.608Z,9.59
2023-02-19T00:18:21.939Z,9.56
2023-02-19T00:19:22.160Z,9.56
2023-02-19T00:20:22.381Z,9.56
2023-02-19T00:21:21.708Z,9.56
2023-02-19T00:22:22.019Z,9.55
2023-02-19T00:23:21.282Z,9.53
2023-02-19T00:24:22.519Z,9.53
2023-02-19T00:25:22.787Z,9.53
2023-02-19T00:26:22.126Z,9.53
2023-02-19T00:27:21.393Z,9.50
2023-02-19T00:28:21.831Z,9.49
2023-02-19T00:29:23.975Z,9.50
2023-02-19T00:30:22.196Z,9.50
2023-02-19T00:31:22.573Z,9.49
2023-02-19T00:32:22.797Z,9.49
2023-02-19T00:33:22.080Z,9.49
2023-02-19T00:34:21.303Z,9.45
2023-02-19T00:35:22.532Z,9.44
2023-02-19T00:36:22.848Z,9.45
2023-02-19T00:37:21.122Z,9.48
2023-02-19T00:38:21.441Z,9.48
2023-02-19T00:39:22.426Z,9.48
2023-02-19T00:40:21.922Z,9.45
2023-02-19T00:41:21.195Z,9.48
2023-02-19T00:42:21.464Z,9.44
2023-02-19T00:43:21.803Z,9.44
2023-02-19T00:44:21.013Z,9.44
2023-02-19T00:45:21.312Z,9.42
2023-02-19T00:46:22.572Z,9.44
2023-02-19T00:47:21.856Z,9.42
2023-02-19T00:48:22.032Z,9.42
2023-02-19T00:49:22.388Z,9.42
2023-02-19T00:50:21.693Z,9.41
2023-02-19T00:51:20.981Z,9.41
2023-02-19T00:52:22.154Z,9.42
2023-02-19T00:53:21.458Z,9.40
2023-02-19T00:54:21.742Z,9.42
2023-02-19T00:55:20.993Z,9.40
2023-02-19T00:56:21.384Z,9.40
2023-02-19T00:57:22.492Z,9.41
2023-02-19T00:58:20.802Z,9.41
2023-02-19T00:59:21.053Z,9.41
2023-02-19T01:00:21.313Z,9.40
2023-02-19T01:01:21.720Z,9.40
2023-02-19T01:02:20.847Z,9.40
2023-02-19T01:03:21.143Z,9.41
2023-02-19T01:04:21.446Z,9.41
2023-02-19T01:05:20.646Z,9.41
2023-02-19T01:06:20.915Z,9.45
2023-02-19T01:07:21.227Z,9.44
2023-02-19T01:08:21.444Z,9.48
2023-02-19T01:09:21.723Z,9.48
2023-02-19T01:10:21.909Z,9.49
2023-02-19T01:11:21.238Z,9.50
2023-02-19T01:12:21.549Z,9.52
2023-02-19T01:13:20.770Z,9.53
2023-02-19T01:14:21.958Z,9.55
2023-02-19T01:15:21.273Z,9.53
2023-02-19T01:16:20.666Z,9.56
2023-02-19T01:17:20.819Z,9.55
2023-02-19T01:18:21.113Z,9.53
2023-02-19T01:19:21.340Z,9.53
2023-02-19T01:20:20.545Z,9.55
2023-02-19T01:21:20.975Z,9.53
2023-02-19T01:22:22.016Z,9.53
2023-02-19T01:23:21.368Z,9.49
2023-02-19T01:24:20.613Z,9.49
2023-02-19T01:25:21.794Z,9.45
2023-02-19T01:26:22.176Z,9.48
2023-02-19T01:27:21.293Z,9.42
2023-02-19T01:28:20.630Z,9.42
2023-02-19T01:29:21.932Z,9.40
2023-02-19T01:30:22.245Z,9.35
2023-02-19T01:31:21.522Z,9.34
2023-02-19T01:32:20.757Z,9.35
2023-02-19T01:33:21.047Z,9.35
2023-02-19T01:34:20.282Z,9.35
2023-02-19T01:35:20.581Z,9.35
2023-02-19T01:36:20.841Z,9.34
2023-02-19T01:37:21.100Z,9.35
2023-02-19T01:38:20.342Z,9.34
2023-02-19T01:39:21.697Z,9.35
2023-02-19T01:40:20.922Z,9.34
2023-02-19T01:41:20.172Z,9.34
2023-02-19T01:42:20.472Z,9.31
2023-02-19T01:43:21.720Z,9.31
2023-02-19T01:44:21.086Z,9.32
2023-02-19T01:45:20.295Z,9.31
2023-02-19T01:46:20.661Z,9.32
2023-02-19T01:47:20.874Z,9.31
2023-02-19T01:48:20.143Z,9.31
2023-02-19T01:49:20.449Z,9.31
2023-02-19T01:50:20.764Z,9.31
2023-02-19T01:51:21.042Z,9.31
2023-02-19T01:52:20.438Z,9.31
2023-02-19T01:53:20.655Z,9.31
2023-02-19T01:54:20.064Z,9.31
2023-02-19T01:55:20.409Z,9.31
2023-02-19T01:56:20.729Z,9.32
2023-02-19T01:57:20.034Z,9.34
2023-02-19T01:58:20.380Z,9.31
2023-02-19T01:59:20.654Z,9.35
2023-02-19T02:00:19.925Z,9.34
2023-02-19T02:01:20.262Z,9.34
2023-02-19T02:02:20.663Z,9.35
2023-02-19T02:03:19.869Z,9.35
2023-02-19T02:04:20.255Z,9.35
2023-02-19T02:05:21.438Z,9.35
2023-02-19T02:06:20.789Z,9.35
2023-02-19T02:07:21.128Z,9.34
2023-02-19T02:08:20.405Z,9.37
2023-02-19T02:09:21.705Z,9.35
2023-02-19T02:10:19.967Z,9.35
2023-02-19T02:11:20.302Z,9.34
2023-02-19T02:12:19.876Z,9.37
2023-02-19T02:13:20.165Z,9.35
2023-02-19T02:14:20.476Z,9.37
2023-02-19T02:15:19.817Z,9.35
2023-02-19T02:16:20.091Z,9.37
2023-02-19T02:17:21.296Z,9.37
2023-02-19T02:18:20.631Z,9.37
2023-02-19T02:19:19.859Z,9.35
2023-02-19T02:20:20.148Z,9.35
2023-02-19T02:21:20.518Z,9.35
2023-02-19T02:22:19.682Z,9.38
2023-02-19T02:23:19.966Z,9.35
2023-02-19T02:24:20.287Z,9.35
2023-02-19T02:25:20.615Z,9.34
2023-02-19T02:26:19.817Z,9.37
2023-02-19T02:27:20.097Z,9.35
2023-02-19T02:28:20.412Z,9.35
2023-02-19T02:29:20.709Z,9.35
2023-02-19T02:30:20.037Z,9.35
2023-02-19T02:31:20.851Z,9.35
2023-02-19T02:32:19.581Z,9.35
2023-02-19T02:33:20.783Z,9.35
2023-02-19T02:34:20.171Z,9.34
2023-02-19T02:35:20.474Z,9.35
2023-02-19T02:36:20.871Z,9.34
2023-02-19T02:37:20.069Z,9.34
2023-02-19T02:38:20.381Z,9.35
2023-02-19T02:39:19.669Z,9.34
2023-02-19T02:40:21.939Z,9.34
2023-02-19T02:41:20.259Z,9.34
2023-02-19T02:42:19.612Z,9.37
2023-02-19T02:43:19.824Z,9.34
2023-02-19T02:44:21.090Z,9.35
2023-02-19T02:45:20.432Z,9.34
2023-02-19T02:46:19.673Z,9.35
2023-02-19T02:47:20.004Z,9.34
2023-02-19T02:48:20.276Z,9.34
2023-02-19T02:49:19.544Z,9.35
2023-02-19T02:50:19.827Z,9.34
2023-02-19T02:51:20.093Z,9.37
2023-02-19T02:52:20.392Z,9.35
2023-02-19T02:53:20.675Z,9.37
2023-02-19T02:54:19.912Z,9.35
2023-02-19T02:55:19.200Z,9.38
2023-02-19T02:56:20.557Z,9.38
2023-02-19T02:57:20.810Z,9.35
2023-02-19T02:58:20.058Z,9.38
2023-02-19T02:59:19.324Z,9.32
2023-02-19T03:00:19.618Z,9.38
2023-02-19T03:01:20.899Z,9.37
2023-02-19T03:02:19.346Z,9.37
2023-02-19T03:03:20.532Z,9.37
2023-02-19T03:04:19.777Z,9.37
2023-02-19T03:05:20.089Z,9.38
2023-02-19T03:06:19.449Z,9.37
2023-02-19T03:07:19.646Z,9.37
2023-02-19T03:08:19.923Z,9.37
2023-02-19T03:09:20.164Z,9.37
2023-02-19T03:10:19.494Z,9.40
2023-02-19T03:11:19.773Z,9.40
2023-02-19T03:12:20.072Z,9.40
2023-02-19T03:13:19.323Z,9.40
2023-02-19T03:14:19.624Z,9.40
2023-02-19T03:15:19.936Z,9.40
2023-02-19T03:16:20.216Z,9.40
2023-02-19T03:17:20.498Z,9.40
2023-02-19T03:18:19.714Z,9.40
2023-02-19T03:19:18.942Z,9.41
2023-02-19T03:20:20.272Z,9.42
2023-02-19T03:21:19.525Z,9.41
2023-02-19T03:22:20.756Z,9.41
2023-02-19T03:23:20.091Z,9.41
2023-02-19T03:24:19.360Z,9.41
2023-02-19T03:25:19.659Z,9.41
2023-02-19T03:26:18.891Z,9.41
2023-02-19T03:27:19.170Z,9.42
2023-02-19T03:28:20.434Z,9.40
2023-02-19T03:29:18.721Z,9.40
2023-02-19T03:30:19.042Z,9.38
2023-02-19T03:31:19.459Z,9.38
2023-02-19T03:32:19.690Z,9.35
2023-02-19T03:33:18.929Z,9.34
2023-02-19T03:34:25.219Z,9.32
2023-02-19T03:35:19.549Z,9.34
2023-02-19T03:36:19.229Z,9.35
2023-02-19T03:37:19.179Z,9.37
2023-02-19T03:38:19.452Z,9.35
2023-02-19T03:39:18.720Z,9.34
2023-02-19T03:40:19.989Z,9.35
2023-02-19T03:41:19.374Z,9.34
2023-02-19T03:42:19.723Z,9.32
2023-02-19T03:43:20.005Z,9.30
2023-02-19T03:44:19.278Z,9.31
2023-02-19T03:45:19.588Z,9.30
2023-02-19T03:46:19.879Z,9.26
2023-02-19T03:47:20.184Z,9.26
2023-02-19T03:48:19.467Z,9.26
2023-02-19T03:49:18.705Z,9.23
2023-02-19T03:50:19.003Z,9.23
2023-02-19T03:51:19.284Z,9.23
2023-02-19T03:52:19.500Z,9.22
2023-02-19T03:53:19.930Z,9.23
2023-02-19T03:54:19.172Z,9.23
2023-02-19T03:55:19.404Z,9.23
2023-02-19T03:56:19.781Z,9.22
2023-02-19T03:57:19.065Z,9.20
2023-02-19T03:58:18.340Z,9.22
2023-02-19T03:59:19.061Z,9.22
2023-02-19T04:00:18.938Z,9.24
2023-02-19T04:01:19.259Z,9.24
2023-02-19T04:02:19.649Z,9.24
2023-02-19T04:03:18.789Z,9.26
2023-02-19T04:04:19.133Z,9.23
2023-02-19T04:05:18.843Z,9.24
2023-02-19T04:06:18.669Z,9.24
2023-02-19T04:07:18.984Z,9.23
2023-02-19T04:08:19.233Z,9.23
2023-02-19T04:09:19.674Z,9.26
2023-02-19T04:10:19.869Z,9.26
2023-02-19T04:11:18.730Z,9.27
2023-02-19T04:12:19.041Z,9.26
2023-02-19T04:13:18.314Z,9.26
2023-02-19T04:14:18.586Z,9.27
2023-02-19T04:15:18.971Z,9.27
2023-02-19T04:16:18.195Z,9.27
2023-02-19T04:17:19.425Z,9.24
2023-02-19T04:18:18.771Z,9.26
2023-02-19T04:19:19.036Z,9.27
2023-02-19T04:20:18.326Z,9.26
2023-02-19T04:21:18.656Z,9.27
2023-02-19T04:22:18.973Z,9.27
2023-02-19T04:23:19.281Z,9.27
2023-02-19T04:24:18.543Z,9.24
2023-02-19T04:25:18.831Z,9.23
2023-02-19T04:26:19.154Z,9.22
2023-02-19T04:27:18.398Z,9.22
2023-02-19T04:28:18.672Z,9.20
2023-02-19T04:29:18.924Z,9.19
2023-02-19T04:30:18.212Z,9.22
2023-02-19T04:31:18.497Z,9.22
2023-02-19T04:32:18.911Z,9.19
2023-02-19T04:33:17.966Z,9.17
2023-02-19T04:34:18.256Z,9.20
2023-02-19T04:35:18.535Z,9.20
2023-02-19T04:36:18.828Z,9.19
2023-02-19T04:37:18.086Z,9.20
2023-02-19T04:38:18.676Z,9.20
2023-02-19T04:39:18.636Z,9.22
2023-02-19T04:40:18.854Z,9.22
2023-02-19T04:41:20.187Z,9.22
2023-02-19T04:42:19.456Z,9.23
2023-02-19T04:43:18.820Z,9.23
2023-02-19T04:44:18.074Z,9.22
2023-02-19T04:45:19.293Z,9.22
2023-02-19T04:46:19.641Z,9.22
2023-02-19T04:47:18.964Z,9.20
2023-02-19T04:48:19.188Z,9.17
2023-02-19T04:49:18.554Z,9.16
2023-02-19T04:50:17.811Z,9.16
2023-02-19T04:51:18.102Z,9.19
2023-02-19T04:52:19.356Z,9.20
2023-02-19T04:53:18.628Z,9.19
2023-02-19T04:54:18.893Z,9.17
2023-02-19T04:55:18.466Z,9.13
2023-02-19T04:56:18.534Z,9.15
2023-02-19T04:57:18.722Z,9.15
2023-02-19T04:58:18.063Z,9.12
2023-02-19T04:59:18.366Z,9.13
2023-02-19T05:00:17.578Z,9.10
2023-02-19T05:01:18.972Z,9.13
2023-02-19T05:02:19.117Z,9.13
2023-02-19T05:03:18.454Z,9.12
2023-02-19T05:04:18.692Z,9.13
2023-02-19T05:05:18.916Z,9.12
2023-02-19T05:06:18.237Z,9.10
2023-02-19T05:07:18.274Z,9.12
2023-02-19T05:08:17.778Z,9.10
2023-02-19T05:09:19.004Z,9.12
2023-02-19T05:10:18.363Z,9.13
2023-02-19T05:11:17.611Z,9.10
2023-02-19T05:12:17.883Z,9.12
2023-02-19T05:13:18.452Z,9.12
2023-02-19T05:14:17.438Z,9.12
2023-02-19T05:15:18.689Z,9.12
2023-02-19T05:16:19.065Z,9.12
2023-02-19T05:17:18.253Z,9.10
2023-02-19T05:18:18.527Z,9.12
2023-02-19T05:19:17.948Z,9.10
2023-02-19T05:20:18.188Z,9.13
2023-02-19T05:21:17.461Z,9.12
2023-02-19T05:22:18.723Z,9.08
2023-02-19T05:23:19.015Z,9.06
2023-02-19T05:24:17.377Z,9.06
2023-02-19T05:25:17.693Z,9.08
2023-02-19T05:26:18.085Z,9.06
2023-02-19T05:27:17.243Z,9.08
2023-02-19T05:28:17.551Z,9.06
2023-02-19T05:29:17.932Z,9.08
2023-02-19T05:30:17.200Z,9.08
2023-02-19T05:31:17.662Z,9.06
2023-02-19T05:32:17.763Z,9.06
2023-02-19T05:33:18.058Z,9.06
2023-02-19T05:34:17.331Z,9.06
2023-02-19T05:35:17.600Z,9.04
2023-02-19T05:36:17.907Z,9.03
2023-02-19T05:37:17.146Z,9.04
2023-02-19T05:38:18.373Z,9.04
2023-02-19T05:39:18.672Z,9.03
2023-02-19T05:40:17.973Z,9.01
2023-02-19T05:41:17.261Z,9.00
2023-02-19T05:42:18.269Z,9.00
2023-02-19T05:43:17.842Z,8.98
2023-02-19T05:44:17.112Z,8.97
2023-02-19T05:45:17.427Z,8.97
2023-02-19T05:46:18.665Z,8.93
2023-02-19T05:47:17.929Z,8.94
2023-02-19T05:48:17.758Z,8.91
2023-02-19T05:49:17.547Z,8.93
2023-02-19T05:50:17.848Z,8.89
2023-02-19T05:51:18.080Z,8.89
2023-02-19T05:52:17.419Z,8.91
2023-02-19T05:53:17.712Z,8.91
2023-02-19T05:54:17.504Z,8.86
2023-02-19T05:55:17.277Z,8.89
2023-02-19T05:56:17.548Z,8.88
2023-02-19T05:57:16.815Z,8.88
2023-02-19T05:58:17.143Z,8.89
2023-02-19T05:59:17.458Z,8.89
2023-02-19T06:00:18.242Z,8.88
2023-02-19T06:01:17.938Z,8.89
2023-02-19T06:02:18.237Z,8.89
2023-02-19T06:03:17.584Z,8.88
2023-02-19T06:04:16.833Z,8.93
2023-02-19T06:05:17.161Z,8.89
2023-02-19T06:06:17.599Z,8.88
2023-02-19T06:07:17.650Z,8.88
2023-02-19T06:08:17.003Z,8.88
2023-02-19T06:09:17.282Z,8.88
2023-02-19T06:10:18.568Z,8.88
2023-02-19T06:11:17.837Z,8.86
2023-02-19T06:12:17.330Z,8.85
2023-02-19T06:13:17.893Z,8.83
2023-02-19T06:14:16.730Z,8.83
2023-02-19T06:15:17.961Z,8.83
2023-02-19T06:16:17.333Z,8.85
2023-02-19T06:17:16.594Z,8.86
2023-02-19T06:18:16.928Z,8.86
2023-02-19T06:19:17.177Z,8.88
2023-02-19T06:20:17.473Z,8.83
2023-02-19T06:21:16.718Z,8.86
2023-02-19T06:22:17.946Z,8.86
2023-02-19T06:23:17.631Z,8.88
2023-02-19T06:24:16.538Z,8.86
2023-02-19T06:25:16.835Z,8.86
2023-02-19T06:26:17.128Z,8.86
2023-02-19T06:27:17.334Z,8.83
2023-02-19T06:28:16.698Z,8.83
2023-02-19T06:29:17.057Z,8.83
2023-02-19T06:30:17.340Z,8.85
2023-02-19T06:31:16.734Z,8.82
2023-02-19T06:32:17.932Z,8.83
2023-02-19T06:33:18.140Z,8.80
2023-02-19T06:34:17.400Z,8.79
2023-02-19T06:35:17.302Z,8.78
2023-02-19T06:36:17.144Z,8.78
2023-02-19T06:37:16.342Z,8.76
2023-02-19T06:38:16.624Z,8.78
2023-02-19T06:39:16.903Z,8.76
2023-02-19T06:40:17.216Z,8.78
2023-02-19T06:41:16.553Z,8.76
2023-02-19T06:42:16.774Z,8.76
2023-02-19T06:43:17.047Z,8.75
2023-02-19T06:44:16.283Z,8.73
2023-02-19T06:45:16.586Z,8.73
2023-02-19T06:46:16.926Z,8.73
2023-02-19T06:47:16.164Z,8.73
2023-02-19T06:48:16.563Z,8.73
2023-02-19T06:49:16.709Z,8.73
2023-02-19T06:50:17.022Z,8.73
2023-02-19T06:51:17.205Z,8.75
2023-02-19T06:52:16.687Z,8.73
2023-02-19T06:53:16.861Z,8.71
2023-02-19T06:54:16.126Z,8.73
2023-02-19T06:55:17.378Z,8.76
2023-02-19T06:56:16.736Z,8.75
2023-02-19T06:57:15.965Z,8.76
2023-02-19T06:58:16.275Z,8.78
2023-02-19T06:59:16.531Z,8.76
2023-02-19T07:00:16.796Z,8.75
2023-02-19T07:01:16.144Z,8.75
2023-02-19T07:02:16.335Z,8.78
2023-02-19T07:03:16.707Z,8.78
2023-02-19T07:04:16.926Z,8.78
2023-02-19T07:05:16.117Z,8.76
2023-02-19T07:06:16.392Z,8.78
2023-02-19T07:07:16.672Z,8.78
2023-02-19T07:08:15.892Z,8.79
2023-02-19T07:09:16.585Z,8.76
2023-02-19T07:10:16.451Z,8.78
2023-02-19T07:11:16.710Z,8.75
2023-02-19T07:12:15.955Z,8.76
2023-02-19T07:13:16.214Z,8.75
2023-02-19T07:14:16.503Z,8.75
2023-02-19T07:15:16.144Z,8.76
2023-02-19T07:16:16.058Z,8.76
2023-02-19T07:17:17.258Z,8.76
2023-02-19T07:18:17.546Z,8.75
2023-02-19T07:19:16.984Z,8.76
2023-02-19T07:20:17.045Z,8.78
2023-02-19T07:21:16.885Z,8.78
2023-02-19T07:22:16.656Z,8.75
2023-02-19T07:23:15.894Z,8.75
2023-02-19T07:24:16.173Z,8.78
2023-02-19T07:25:16.478Z,8.75
2023-02-19T07:26:15.702Z,8.76
2023-02-19T07:27:16.053Z,8.75
2023-02-19T07:28:16.383Z,8.73
2023-02-19T07:29:15.580Z,8.76
2023-02-19T07:30:16.856Z,8.76
2023-02-19T07:31:16.264Z,8.76
2023-02-19T07:32:16.554Z,8.76
2023-02-19T07:33:15.744Z,8.76
2023-02-19T07:34:16.027Z,8.75
2023-02-19T07:35:16.309Z,8.73
2023-02-19T07:36:15.589Z,8.75
2023-02-19T07:37:15.879Z,8.75
2023-02-19T07:38:16.189Z,8.76
2023-02-19T07:39:15.429Z,8.76
2023-02-19T07:40:16.651Z,8.76
2023-02-19T07:41:16.030Z,8.75
2023-02-19T07:42:16.342Z,8.75
2023-02-19T07:43:15.622Z,8.75
2023-02-19T07:44:15.948Z,8.73
2023-02-19T07:45:16.258Z,8.71
2023-02-19T07:46:16.467Z,8.75
2023-02-19T07:47:15.847Z,8.73
2023-02-19T07:48:16.144Z,8.73
2023-02-19T07:49:15.397Z,8.71
2023-02-19T07:50:15.760Z,8.75
2023-02-19T07:51:16.968Z,8.73
2023-02-19T07:52:15.277Z,8.71
2023-02-19T07:53:15.595Z,8.71
2023-02-19T07:54:15.907Z,8.70
2023-02-19T07:55:16.232Z,8.68
2023-02-19T07:56:15.508Z,8.67
2023-02-19T07:57:15.800Z,8.67
2023-02-19T07:58:16.123Z,8.65
2023-02-19T07:59:15.368Z,8.65
2023-02-19T08:00:15.680Z,8.63
2023-02-19T08:01:16.033Z,8.61
2023-02-19T08:02:15.252Z,8.60
2023-02-19T08:03:15.634Z,8.57
2023-02-19T08:04:15.906Z,8.54
2023-02-19T08:05:15.144Z,8.54
2023-02-19T08:06:15.483Z,8.54
2023-02-19T08:07:16.689Z,8.50
2023-02-19T08:08:16.033Z,8.50
2023-02-19T08:09:15.260Z,8.50
2023-02-19T08:10:16.528Z,8.50
2023-02-19T08:11:15.868Z,8.50
2023-02-19T08:12:15.159Z,8.52
2023-02-19T08:13:16.368Z,8.52
2023-02-19T08:14:15.723Z,8.50
2023-02-19T08:15:14.996Z,8.50
2023-02-19T08:16:21.815Z,8.52
2023-02-19T08:17:16.669Z,8.54
2023-02-19T08:18:16.810Z,8.50
2023-02-19T08:19:15.113Z,8.50
2023-02-19T08:20:16.357Z,8.49
2023-02-19T08:21:15.697Z,8.49
2023-02-19T08:22:14.971Z,8.46
2023-02-19T08:23:15.293Z,8.46
2023-02-19T08:24:16.517Z,8.45
2023-02-19T08:25:14.807Z,8.46
2023-02-19T08:26:15.120Z,8.46
2023-02-19T08:27:15.438Z,8.47
2023-02-19T08:28:15.822Z,8.47
2023-02-19T08:29:15.036Z,8.46
2023-02-19T08:30:15.416Z,8.47
2023-02-19T08:31:16.001Z,8.46
2023-02-19T08:32:15.046Z,8.49
2023-02-19T08:33:15.229Z,8.46
2023-02-19T08:34:15.573Z,8.45
2023-02-19T08:35:14.817Z,8.45
2023-02-19T08:36:15.101Z,8.45
2023-02-19T08:37:15.370Z,8.43
2023-02-19T08:38:15.603Z,8.43
2023-02-19T08:39:14.952Z,8.42
2023-02-19T08:40:15.320Z,8.45
2023-02-19T08:41:16.523Z,8.43
2023-02-19T08:42:15.786Z,8.42
2023-02-19T08:43:15.156Z,8.42
2023-02-19T08:44:15.461Z,8.45
2023-02-19T08:45:14.715Z,8.40
2023-02-19T08:46:16.433Z,8.42
2023-02-19T08:47:15.308Z,8.42
2023-02-19T08:48:14.604Z,8.42
2023-02-19T08:49:14.875Z,8.43
2023-02-19T08:50:15.177Z,8.45
2023-02-19T08:51:14.891Z,8.46
2023-02-19T08:52:14.756Z,8.46
2023-02-19T08:53:15.072Z,8.46
2023-02-19T08:54:15.376Z,8.43
2023-02-19T08:55:14.653Z,8.46
2023-02-19T08:56:15.000Z,8.45
2023-02-19T08:57:15.263Z,8.43
2023-02-19T08:58:14.543Z,8.43
2023-02-19T08:59:14.852Z,8.43
2023-02-19T09:00:15.148Z,8.43
2023-02-19T09:01:15.738Z,8.45
2023-02-19T09:02:14.753Z,8.46
2023-02-19T09:03:15.014Z,8.47
2023-02-19T09:04:14.246Z,8.49
2023-02-19T09:05:15.542Z,8.49
2023-02-19T09:06:14.857Z,8.50
2023-02-19T09:07:15.178Z,8.52
2023-02-19T09:08:14.439Z,8.52
2023-02-19T09:09:14.732Z,8.55
2023-02-19T09:10:15.056Z,8.54
2023-02-19T09:11:15.233Z,8.55
2023-02-19T09:12:14.622Z,8.58
2023-02-19T09:13:14.908Z,8.58
2023-02-19T09:14:14.176Z,8.61
2023-02-19T09:15:15.424Z,8.64
2023-02-19T09:16:14.757Z,8.65
2023-02-19T09:17:15.067Z,8.68
2023-02-19T09:18:14.317Z,8.71
2023-02-19T09:19:14.633Z,8.71
2023-02-19T09:20:14.899Z,8.73
2023-02-19T09:21:14.263Z,8.71
2023-02-19T09:22:14.464Z,8.75
2023-02-19T09:23:14.814Z,8.75
2023-02-19T09:24:14.054Z,8.76
2023-02-19T09:25:14.322Z,8.76
2023-02-19T09:26:15.626Z,8.75
2023-02-19T09:27:15.940Z,8.75
2023-02-19T09:28:14.261Z,8.76
2023-02-19T09:29:14.611Z,8.75
2023-02-19T09:30:14.984Z,8.78
2023-02-19T09:31:14.718Z,8.79
2023-02-19T09:32:14.468Z,8.80
2023-02-19T09:33:14.731Z,8.78
2023-02-19T09:34:14.015Z,8.80
2023-02-19T09:35:14.291Z,8.82
2023-02-19T09:36:14.571Z,8.85
2023-02-19T09:37:14.842Z,8.86
2023-02-19T09:38:14.081Z,8.86
2023-02-19T09:39:14.398Z,8.88
2023-02-19T09:40:14.773Z,8.91
2023-02-19T09:41:13.918Z,8.93
2023-02-19T09:42:14.196Z,8.96
2023-02-19T09:43:14.482Z,8.94
2023-02-19T09:44:14.760Z,8.93
2023-02-19T09:45:14.013Z,8.94
2023-02-19T09:46:14.416Z,8.96
2023-02-19T09:47:14.573Z,9.00
2023-02-19T09:48:13.842Z,9.00
2023-02-19T09:49:14.142Z,9.01
2023-02-19T09:50:14.521Z,9.01
2023-02-19T09:51:13.692Z,9.01
2023-02-19T09:52:13.981Z,9.04
2023-02-19T09:53:15.201Z,9.10
2023-02-19T09:54:15.462Z,9.10
2023-02-19T09:55:14.732Z,9.08
2023-02-19T09:56:14.087Z,9.10
2023-02-19T09:57:14.390Z,9.12
2023-02-19T09:58:13.614Z,9.16
2023-02-19T09:59:13.900Z,9.12
2023-02-19T10:00:14.203Z,9.15
2023-02-19T10:01:14.707Z,9.16
2023-02-19T10:02:13.734Z,9.20
2023-02-19T10:03:14.009Z,9.22
2023-02-19T10:04:15.253Z,9.23
2023-02-19T10:05:13.572Z,9.22
2023-02-19T10:06:14.783Z,9.23
2023-02-19T10:07:14.218Z,9.23
2023-02-19T10:08:14.463Z,9.22
2023-02-19T10:09:14.579Z,9.20
2023-02-19T10:10:14.890Z,9.22
2023-02-19T10:11:14.277Z,9.19
2023-02-19T10:12:13.488Z,9.17
2023-02-19T10:13:13.874Z,9.19
2023-02-19T10:14:14.093Z,9.17
2023-02-19T10:15:14.299Z,9.16
2023-02-19T10:16:13.713Z,9.13
2023-02-19T10:17:17.957Z,9.12
2023-02-19T10:18:14.278Z,9.10
2023-02-19T10:19:13.724Z,9.06
2023-02-19T10:20:14.807Z,9.06
2023-02-19T10:21:14.149Z,9.08
2023-02-19T10:22:13.424Z,9.06
2023-02-19T10:23:13.708Z,9.06
2023-02-19T10:24:14.047Z,9.04
2023-02-19T10:25:13.273Z,9.03
2023-02-19T10:26:13.572Z,8.98
2023-02-19T10:27:13.865Z,8.97
2023-02-19T10:28:14.191Z,8.97
2023-02-19T10:29:13.420Z,8.96
2023-02-19T10:30:13.830Z,8.97
2023-02-19T10:31:14.478Z,9.00
2023-02-19T10:32:13.379Z,8.98
2023-02-19T10:33:13.626Z,9.00
2023-02-19T10:34:13.862Z,9.01
2023-02-19T10:35:14.073Z,9.01
2023-02-19T10:36:13.553Z,9.03
2023-02-19T10:37:13.738Z,9.01
2023-02-19T10:38:14.023Z,9.01
2023-02-19T10:39:13.280Z,9.01
2023-02-19T10:40:14.523Z,9.01
2023-02-19T10:41:13.868Z,9.04
2023-02-19T10:42:13.136Z,9.01
2023-02-19T10:43:14.384Z,9.03
2023-02-19T10:44:14.681Z,9.08
2023-02-19T10:45:13.957Z,9.08
2023-02-19T10:46:14.215Z,9.03
2023-02-19T10:47:13.605Z,9.03
2023-02-19T10:48:14.779Z,9.03
2023-02-19T10:49:13.054Z,9.01
2023-02-19T10:50:13.353Z,9.01
2023-02-19T10:51:14.599Z,9.01
2023-02-19T10:52:13.934Z,9.01
2023-02-19T10:53:14.220Z,8.98
2023-02-19T10:54:14.481Z,8.96
2023-02-19T10:55:14.700Z,8.97
2023-02-19T10:56:13.945Z,8.93
2023-02-19T10:57:13.294Z,8.94
2023-02-19T10:58:13.749Z,8.93
2023-02-19T10:59:13.749Z,8.91
2023-02-19T11:00:13.118Z,8.88
2023-02-19T11:01:13.386Z,8.88
2023-02-19T11:02:14.600Z,8.83
2023-02-19T11:03:13.958Z,8.80
2023-02-19T11:04:13.241Z,8.80
2023-02-19T11:05:14.417Z,8.82
2023-02-19T11:06:12.729Z,8.85
2023-02-19T11:07:13.025Z,8.86
2023-02-19T11:08:13.728Z,8.83
2023-02-19T11:09:13.098Z,8.86
2023-02-19T11:10:14.258Z,8.86
2023-02-19T11:11:13.553Z,8.89
2023-02-19T11:12:12.796Z,8.91
2023-02-19T11:13:13.093Z,8.94
2023-02-19T11:14:13.412Z,8.96
2023-02-19T11:15:12.598Z,8.94
2023-02-19T11:16:13.876Z,8.94
2023-02-19T11:17:14.082Z,8.91
2023-02-19T11:18:14.389Z,8.91
2023-02-19T11:19:13.608Z,8.91
2023-02-19T11:20:13.752Z,8.91
2023-02-19T11:21:14.208Z,8.91
2023-02-19T11:22:13.459Z,8.86
2023-02-19T11:23:13.705Z,8.86
2023-02-19T11:24:13.963Z,8.88
2023-02-19T11:25:14.252Z,8.88
2023-02-19T11:26:13.982Z,8.86
2023-02-19T11:27:13.775Z,8.83
2023-02-19T11:28:14.042Z,8.80
2023-02-19T11:29:14.338Z,8.83
2023-02-19T11:30:14.642Z,8.83
2023-02-19T11:31:14.545Z,8.82
2023-02-19T11:32:13.502Z,8.85
2023-02-19T11:33:13.451Z,8.85
2023-02-19T11:34:14.026Z,8.83
2023-02-19T11:35:12.998Z,8.85
2023-02-19T11:36:17.423Z,8.88
2023-02-19T11:37:12.572Z,8.89
2023-02-19T11:38:13.725Z,8.89
2023-02-19T11:39:13.040Z,8.89
2023-02-19T11:40:13.283Z,8.89
2023-02-19T11:41:13.798Z,8.94
2023-02-19T11:42:13.798Z,8.96
2023-02-19T11:43:14.066Z,9.00
2023-02-19T11:44:13.311Z,9.00
2023-02-19T11:45:13.577Z,9.03
2023-02-19T11:46:12.908Z,9.08
2023-02-19T11:47:13.113Z,9.10
2023-02-19T11:48:13.265Z,9.10
2023-02-19T11:49:13.484Z,9.13
2023-02-19T11:50:12.768Z,9.17
2023-02-19T11:51:13.999Z,9.16
2023-02-19T11:52:13.295Z,9.20
2023-02-19T11:53:13.533Z,9.19
2023-02-19T11:54:12.828Z,9.24
2023-02-19T11:55:12.041Z,9.27
2023-02-19T11:56:13.288Z,9.35
2023-02-19T11:57:12.601Z,9.35
2023-02-19T11:58:13.816Z,9.38
2023-02-19T11:59:12.107Z,9.45
2023-02-19T12:00:13.359Z,9.49
2023-02-19T12:01:13.219Z,9.49
2023-02-19T12:02:13.015Z,9.55
2023-02-19T12:03:13.150Z,9.56
2023-02-19T12:04:12.529Z,9.60
2023-02-19T12:05:12.749Z,9.62
2023-02-19T12:06:13.146Z,9.58
2023-02-19T12:07:13.182Z,9.59
2023-02-19T12:08:13.727Z,9.63
2023-02-19T12:09:13.776Z,9.68
2023-02-19T12:10:13.312Z,9.67
2023-02-19T12:11:13.240Z,9.67
2023-02-19T12:12:12.568Z,9.67
2023-02-19T12:13:12.757Z,9.65
2023-02-19T12:14:12.084Z,9.62
2023-02-19T12:15:13.397Z,9.60
2023-02-19T12:16:12.706Z,9.56
2023-02-19T12:17:11.893Z,9.53
2023-02-19T12:18:13.133Z,9.53
2023-02-19T12:19:12.454Z,9.55
2023-02-19T12:20:11.713Z,9.53
2023-02-19T12:21:12.352Z,9.50
2023-02-19T12:22:12.275Z,9.53
2023-02-19T12:23:16.733Z,9.52
2023-02-19T12:24:11.953Z,9.52
2023-02-19T12:25:12.108Z,9.55
2023-02-19T12:26:13.506Z,9.56
2023-02-19T12:27:11.664Z,9.58
2023-02-19T12:28:11.908Z,9.62
2023-02-19T12:29:12.139Z,9.60
2023-02-19T12:30:12.448Z,9.59
2023-02-19T12:31:11.650Z,9.59
2023-02-19T12:32:12.508Z,9.62
2023-02-19T12:33:12.178Z,9.67
2023-02-19T12:34:12.418Z,9.75
2023-02-19T12:35:11.622Z,9.71
2023-02-19T12:36:13.060Z,9.71
2023-02-19T12:37:13.018Z,9.70
2023-02-19T12:38:12.336Z,9.73
2023-02-19T12:39:11.522Z,9.71
2023-02-19T12:40:12.819Z,9.70
2023-02-19T12:41:12.898Z,9.71
2023-02-19T12:42:13.118Z,9.71
2023-02-19T12:43:11.414Z,9.70
2023-02-19T12:44:11.682Z,9.68
2023-02-19T12:45:12.845Z,9.70
2023-02-19T12:46:13.591Z,9.71
2023-02-19T12:47:12.358Z,9.75
2023-02-19T12:48:12.517Z,9.77
2023-02-19T12:49:12.781Z,9.78
2023-02-19T12:50:12.389Z,9.78
2023-02-19T12:51:13.254Z,9.75
2023-02-19T12:52:13.473Z,9.74
2023-02-19T12:53:12.729Z,9.71
2023-02-19T12:54:14.114Z,9.70
2023-02-19T12:55:11.226Z,9.68
2023-02-19T12:56:11.775Z,9.65
2023-02-19T12:57:12.691Z,9.60
2023-02-19T12:58:16.322Z,9.62
2023-02-19T12:59:12.164Z,9.65
2023-02-19T13:00:13.063Z,9.67
2023-02-19T13:01:11.743Z,9.63
2023-02-19T13:02:12.040Z,9.60
2023-02-19T13:03:11.155Z,9.59
2023-02-19T13:04:11.388Z,9.60
2023-02-19T13:05:12.604Z,9.62
2023-02-19T13:06:13.758Z,9.65
2023-02-19T13:07:12.066Z,9.67
2023-02-19T13:08:12.279Z,9.62
2023-02-19T13:09:12.530Z,9.63
2023-02-19T13:10:11.785Z,9.62
2023-02-19T13:11:12.422Z,9.60
2023-02-19T13:12:12.195Z,9.63
2023-02-19T13:13:11.405Z,9.60
2023-02-19T13:14:11.625Z,9.60
2023-02-19T13:15:12.805Z,9.60
2023-02-19T13:16:11.323Z,9.60
2023-02-19T13:17:12.750Z,9.59
2023-02-19T13:18:12.485Z,9.59